sensor_id;sensor_type;location;lat;lon;timestamp;P1;P2;P0
38451;PMS5003;24231;52.514;13.438;2023-06-26T00:01:56;16;16;
38451;PMS5003;24231;52.514;13.438;2023-06-26T00:04:24;18;17;
38451;PMS5003;24231;52.514;13.438;2023-06-26T00:06:51;17;15;
38451;PMS5003;24231;52.514;13.438;2023-06-26T00:09:18;16;15;
38451;PMS5003;24231;52.514;13.438;2023-06-26T00:11:45;16;13;
38451;PMS5003;24231;52.514;13.438;2023-06-26T00:14:13;15;14;
38451;PMS5003;24231;52.514;13.438;2023-06-26T00:16:40;17;14;
38451;PMS5003;24231;52.514;13.438;2023-06-26T00:19:07;12;12;
38451;PMS5003;24231;52.514;13.438;2023-06-26T00:21:35;24;19;
38451;PMS5003;24231;52.514;13.438;2023-06-26T00:24:02;23;16;
38451;PMS5003;24231;52.514;13.438;2023-06-26T00:33:06;16;14;
38451;PMS5003;24231;52.514;13.438;2023-06-26T00:45:21;20;13;
38451;PMS5003;24231;52.514;13.438;2023-06-26T00:47:47;19;16;
38451;PMS5003;24231;52.514;13.438;2023-06-26T00:50:14;13;12;
38451;PMS5003;24231;52.514;13.438;2023-06-26T00:52:41;18;16;
38451;PMS5003;24231;52.514;13.438;2023-06-26T00:55:08;20;18;
38451;PMS5003;24231;52.514;13.438;2023-06-26T00:57:41;19;16;
38451;PMS5003;24231;52.514;13.438;2023-06-26T01:00:09;18;16;
38451;PMS5003;24231;52.514;13.438;2023-06-26T01:02:37;18;16;
38451;PMS5003;24231;52.514;13.438;2023-06-26T01:05:04;15;15;
38451;PMS5003;24231;52.514;13.438;2023-06-26T01:07:32;18;15;
38451;PMS5003;24231;52.514;13.438;2023-06-26T01:10:00;19;16;
38451;PMS5003;24231;52.514;13.438;2023-06-26T01:12:28;18;16;
38451;PMS5003;24231;52.514;13.438;2023-06-26T01:14:56;18;15;
38451;PMS5003;24231;52.514;13.438;2023-06-26T01:17:23;19;19;
38451;PMS5003;24231;52.514;13.438;2023-06-26T01:19:50;14;13;
38451;PMS5003;24231;52.514;13.438;2023-06-26T01:22:19;17;15;
38451;PMS5003;24231;52.514;13.438;2023-06-26T01:24:55;20;18;
38451;PMS5003;24231;52.514;13.438;2023-06-26T01:27:30;18;14;
38451;PMS5003;24231;52.514;13.438;2023-06-26T01:29:59;18;17;
38451;PMS5003;24231;52.514;13.438;2023-06-26T01:32:29;17;16;
38451;PMS5003;24231;52.514;13.438;2023-06-26T01:34:57;19;19;
38451;PMS5003;24231;52.514;13.438;2023-06-26T01:37:24;18;17;
38451;PMS5003;24231;52.514;13.438;2023-06-26T01:39:51;18;18;
38451;PMS5003;24231;52.514;13.438;2023-06-26T01:42:17;16;16;
38451;PMS5003;24231;52.514;13.438;2023-06-26T01:44:45;24;22;
38451;PMS5003;24231;52.514;13.438;2023-06-26T01:47:14;22;19;
38451;PMS5003;24231;52.514;13.438;2023-06-26T01:49:47;18;17;
38451;PMS5003;24231;52.514;13.438;2023-06-26T01:52:20;20;20;
38451;PMS5003;24231;52.514;13.438;2023-06-26T01:54:54;22;20;
38451;PMS5003;24231;52.514;13.438;2023-06-26T02:00:08;18;15;
38451;PMS5003;24231;52.514;13.438;2023-06-26T02:02:37;19;17;
38451;PMS5003;24231;52.514;13.438;2023-06-26T02:05:04;17;16;
38451;PMS5003;24231;52.514;13.438;2023-06-26T02:07:32;17;16;
38451;PMS5003;24231;52.514;13.438;2023-06-26T02:09:59;20;20;
38451;PMS5003;24231;52.514;13.438;2023-06-26T02:12:26;22;21;
38451;PMS5003;24231;52.514;13.438;2023-06-26T02:14:53;20;19;
38451;PMS5003;24231;52.514;13.438;2023-06-26T02:17:20;17;16;
38451;PMS5003;24231;52.514;13.438;2023-06-26T02:19:47;25;18;
38451;PMS5003;24231;52.514;13.438;2023-06-26T02:22:14;22;20;
38451;PMS5003;24231;52.514;13.438;2023-06-26T02:24:42;18;17;
38451;PMS5003;24231;52.514;13.438;2023-06-26T02:27:09;20;19;
38451;PMS5003;24231;52.514;13.438;2023-06-26T02:29:38;16;16;
38451;PMS5003;24231;52.514;13.438;2023-06-26T02:32:06;22;20;
38451;PMS5003;24231;52.514;13.438;2023-06-26T02:34:34;22;19;
38451;PMS5003;24231;52.514;13.438;2023-06-26T02:37:02;20;19;
38451;PMS5003;24231;52.514;13.438;2023-06-26T02:39:29;21;18;
38451;PMS5003;24231;52.514;13.438;2023-06-26T02:41:56;23;19;
38451;PMS5003;24231;52.514;13.438;2023-06-26T02:44:23;19;18;
38451;PMS5003;24231;52.514;13.438;2023-06-26T02:46:51;22;18;
38451;PMS5003;24231;52.514;13.438;2023-06-26T02:49:18;23;22;
38451;PMS5003;24231;52.514;13.438;2023-06-26T02:51:45;24;23;
38451;PMS5003;24231;52.514;13.438;2023-06-26T02:54:13;25;23;
38451;PMS5003;24231;52.514;13.438;2023-06-26T02:56:40;28;19;
38451;PMS5003;24231;52.514;13.438;2023-06-26T02:59:07;18;18;
38451;PMS5003;24231;52.514;13.438;2023-06-26T03:01:34;20;20;
38451;PMS5003;24231;52.514;13.438;2023-06-26T03:04:01;26;21;
38451;PMS5003;24231;52.514;13.438;2023-06-26T03:06:28;22;20;
38451;PMS5003;24231;52.514;13.438;2023-06-26T03:08:55;27;24;
38451;PMS5003;24231;52.514;13.438;2023-06-26T03:11:22;28;23;
38451;PMS5003;24231;52.514;13.438;2023-06-26T03:15:21;26;26;
38451;PMS5003;24231;52.514;13.438;2023-06-26T03:17:48;24;19;
38451;PMS5003;24231;52.514;13.438;2023-06-26T03:20:15;23;17;
38451;PMS5003;24231;52.514;13.438;2023-06-26T03:22:43;23;20;
38451;PMS5003;24231;52.514;13.438;2023-06-26T03:25:09;24;20;
38451;PMS5003;24231;52.514;13.438;2023-06-26T03:39:19;20;20;
38451;PMS5003;24231;52.514;13.438;2023-06-26T03:47:29;25;24;
38451;PMS5003;24231;52.514;13.438;2023-06-26T03:49:55;27;23;
38451;PMS5003;24231;52.514;13.438;2023-06-26T03:50:35;28;24;
38451;PMS5003;24231;52.514;13.438;2023-06-26T03:53:03;37;29;
38451;PMS5003;24231;52.514;13.438;2023-06-26T03:55:30;30;25;
38451;PMS5003;24231;52.514;13.438;2023-06-26T03:57:57;24;22;
38451;PMS5003;24231;52.514;13.438;2023-06-26T04:00:25;36;33;
38451;PMS5003;24231;52.514;13.438;2023-06-26T04:02:52;33;29;
38451;PMS5003;24231;52.514;13.438;2023-06-26T04:05:19;33;27;
38451;PMS5003;24231;52.514;13.438;2023-06-26T04:07:50;24;21;
38451;PMS5003;24231;52.514;13.438;2023-06-26T04:10:18;26;23;
38451;PMS5003;24231;52.514;13.438;2023-06-26T04:12:46;24;21;
38451;PMS5003;24231;52.514;13.438;2023-06-26T04:15:13;22;19;
38451;PMS5003;24231;52.514;13.438;2023-06-26T04:17:40;25;22;
38451;PMS5003;24231;52.514;13.438;2023-06-26T04:20:19;30;26;
38451;PMS5003;24231;52.514;13.438;2023-06-26T04:22:46;20;20;
38451;PMS5003;24231;52.514;13.438;2023-06-26T04:25:58;22;20;
38451;PMS5003;24231;52.514;13.438;2023-06-26T04:33:14;24;21;
38451;PMS5003;24231;52.514;13.438;2023-06-26T04:36:37;20;18;
38451;PMS5003;24231;52.514;13.438;2023-06-26T04:39:04;22;22;
38451;PMS5003;24231;52.514;13.438;2023-06-26T04:46:43;17;16;
38451;PMS5003;24231;52.514;13.438;2023-06-26T04:49:11;23;22;
38451;PMS5003;24231;52.514;13.438;2023-06-26T04:51:38;19;16;
38451;PMS5003;24231;52.514;13.438;2023-06-26T04:54:06;23;23;
38451;PMS5003;24231;52.514;13.438;2023-06-26T04:56:33;20;20;
38451;PMS5003;24231;52.514;13.438;2023-06-26T05:00:01;21;17;
38451;PMS5003;24231;52.514;13.438;2023-06-26T05:02:28;21;20;
38451;PMS5003;24231;52.514;13.438;2023-06-26T05:04:55;22;19;
38451;PMS5003;24231;52.514;13.438;2023-06-26T05:07:23;25;25;
38451;PMS5003;24231;52.514;13.438;2023-06-26T05:09:50;22;21;
38451;PMS5003;24231;52.514;13.438;2023-06-26T05:12:17;21;19;
38451;PMS5003;24231;52.514;13.438;2023-06-26T05:14:44;16;14;
38451;PMS5003;24231;52.514;13.438;2023-06-26T05:17:13;22;17;
38451;PMS5003;24231;52.514;13.438;2023-06-26T05:19:40;20;19;
38451;PMS5003;24231;52.514;13.438;2023-06-26T05:25:48;17;13;
38451;PMS5003;24231;52.514;13.438;2023-06-26T05:28:21;17;16;
38451;PMS5003;24231;52.514;13.438;2023-06-26T05:30:50;19;17;
38451;PMS5003;24231;52.514;13.438;2023-06-26T05:33:18;24;23;
38451;PMS5003;24231;52.514;13.438;2023-06-26T05:35:48;20;14;
38451;PMS5003;24231;52.514;13.438;2023-06-26T05:38:18;18;16;
38451;PMS5003;24231;52.514;13.438;2023-06-26T05:40:45;15;15;
38451;PMS5003;24231;52.514;13.438;2023-06-26T05:43:13;20;17;
38451;PMS5003;24231;52.514;13.438;2023-06-26T05:45:41;26;22;
38451;PMS5003;24231;52.514;13.438;2023-06-26T05:48:19;15;15;
38451;PMS5003;24231;52.514;13.438;2023-06-26T05:50:47;15;14;
38451;PMS5003;24231;52.514;13.438;2023-06-26T05:53:15;14;14;
38451;PMS5003;24231;52.514;13.438;2023-06-26T05:55:43;14;12;
38451;PMS5003;24231;52.514;13.438;2023-06-26T05:58:10;20;17;
38451;PMS5003;24231;52.514;13.438;2023-06-26T06:00:38;12;12;
38451;PMS5003;24231;52.514;13.438;2023-06-26T06:03:06;17;15;
38451;PMS5003;24231;52.514;13.438;2023-06-26T06:05:33;19;16;
38451;PMS5003;24231;52.514;13.438;2023-06-26T06:08:01;16;16;
38451;PMS5003;24231;52.514;13.438;2023-06-26T06:10:28;12;9;
38451;PMS5003;24231;52.514;13.438;2023-06-26T06:12:55;17;15;
38451;PMS5003;24231;52.514;13.438;2023-06-26T06:15:22;16;15;
38451;PMS5003;24231;52.514;13.438;2023-06-26T06:17:50;15;13;
38451;PMS5003;24231;52.514;13.438;2023-06-26T06:20:16;13;13;
38451;PMS5003;24231;52.514;13.438;2023-06-26T06:22:44;16;15;
38451;PMS5003;24231;52.514;13.438;2023-06-26T06:25:11;19;16;
38451;PMS5003;24231;52.514;13.438;2023-06-26T06:27:38;13;13;
38451;PMS5003;24231;52.514;13.438;2023-06-26T06:30:06;16;14;
38451;PMS5003;24231;52.514;13.438;2023-06-26T06:32:34;12;12;
38451;PMS5003;24231;52.514;13.438;2023-06-26T06:35:01;12;10;
38451;PMS5003;24231;52.514;13.438;2023-06-26T06:37:28;11;10;
38451;PMS5003;24231;52.514;13.438;2023-06-26T06:39:56;14;13;
38451;PMS5003;24231;52.514;13.438;2023-06-26T06:42:23;16;16;
38451;PMS5003;24231;52.514;13.438;2023-06-26T06:44:50;12;12;
38451;PMS5003;24231;52.514;13.438;2023-06-26T06:47:17;10;8;
38451;PMS5003;24231;52.514;13.438;2023-06-26T06:49:45;10;10;
38451;PMS5003;24231;52.514;13.438;2023-06-26T06:52:12;10;9;
38451;PMS5003;24231;52.514;13.438;2023-06-26T06:54:50;11;10;
38451;PMS5003;24231;52.514;13.438;2023-06-26T06:57:19;9;8;
38451;PMS5003;24231;52.514;13.438;2023-06-26T06:59:47;10;8;
38451;PMS5003;24231;52.514;13.438;2023-06-26T07:02:14;13;9;
38451;PMS5003;24231;52.514;13.438;2023-06-26T07:04:43;8;8;
38451;PMS5003;24231;52.514;13.438;2023-06-26T07:07:10;8;8;
38451;PMS5003;24231;52.514;13.438;2023-06-26T07:09:38;13;8;
38451;PMS5003;24231;52.514;13.438;2023-06-26T07:12:05;8;8;
38451;PMS5003;24231;52.514;13.438;2023-06-26T07:14:33;8;8;
38451;PMS5003;24231;52.514;13.438;2023-06-26T07:17:01;6;6;
38451;PMS5003;24231;52.514;13.438;2023-06-26T07:19:28;6;6;
38451;PMS5003;24231;52.514;13.438;2023-06-26T07:34:37;10;10;
38451;PMS5003;24231;52.514;13.438;2023-06-26T07:37:05;13;10;
38451;PMS5003;24231;52.514;13.438;2023-06-26T07:39:32;6;6;
38451;PMS5003;24231;52.514;13.438;2023-06-26T07:41:59;8;8;
38451;PMS5003;24231;52.514;13.438;2023-06-26T07:44:26;8;8;
38451;PMS5003;24231;52.514;13.438;2023-06-26T07:46:55;10;9;
38451;PMS5003;24231;52.514;13.438;2023-06-26T07:49:23;10;9;
38451;PMS5003;24231;52.514;13.438;2023-06-26T07:51:50;10;9;
38451;PMS5003;24231;52.514;13.438;2023-06-26T07:54:17;6;6;
38451;PMS5003;24231;52.514;13.438;2023-06-26T07:56:53;9;8;
38451;PMS5003;24231;52.514;13.438;2023-06-26T07:59:21;7;7;
38451;PMS5003;24231;52.514;13.438;2023-06-26T08:01:50;6;5;
38451;PMS5003;24231;52.514;13.438;2023-06-26T08:04:18;9;7;
38451;PMS5003;24231;52.514;13.438;2023-06-26T08:06:47;6;5;
38451;PMS5003;24231;52.514;13.438;2023-06-26T08:09:15;7;6;
38451;PMS5003;24231;52.514;13.438;2023-06-26T08:11:43;12;10;
38451;PMS5003;24231;52.514;13.438;2023-06-26T08:14:10;5;5;
38451;PMS5003;24231;52.514;13.438;2023-06-26T08:16:37;11;10;
38451;PMS5003;24231;52.514;13.438;2023-06-26T08:19:15;7;6;
38451;PMS5003;24231;52.514;13.438;2023-06-26T08:21:43;8;6;
38451;PMS5003;24231;52.514;13.438;2023-06-26T08:24:12;8;7;
38451;PMS5003;24231;52.514;13.438;2023-06-26T08:26:39;6;6;
38451;PMS5003;24231;52.514;13.438;2023-06-26T08:29:07;7;5;
38451;PMS5003;24231;52.514;13.438;2023-06-26T08:31:34;4;4;
38451;PMS5003;24231;52.514;13.438;2023-06-26T08:34:02;8;6;
38451;PMS5003;24231;52.514;13.438;2023-06-26T08:36:30;11;9;
38451;PMS5003;24231;52.514;13.438;2023-06-26T08:38:57;7;7;
38451;PMS5003;24231;52.514;13.438;2023-06-26T08:41:24;7;7;
38451;PMS5003;24231;52.514;13.438;2023-06-26T08:43:52;6;6;
38451;PMS5003;24231;52.514;13.438;2023-06-26T08:46:19;6;5;
38451;PMS5003;24231;52.514;13.438;2023-06-26T08:48:48;7;4;
38451;PMS5003;24231;52.514;13.438;2023-06-26T08:51:23;7;5;
38451;PMS5003;24231;52.514;13.438;2023-06-26T08:53:53;6;6;
38451;PMS5003;24231;52.514;13.438;2023-06-26T08:56:24;6;6;
38451;PMS5003;24231;52.514;13.438;2023-06-26T08:58:54;7;6;
38451;PMS5003;24231;52.514;13.438;2023-06-26T09:01:22;5;4;
38451;PMS5003;24231;52.514;13.438;2023-06-26T09:03:51;5;3;
38451;PMS5003;24231;52.514;13.438;2023-06-26T09:06:18;3;3;
38451;PMS5003;24231;52.514;13.438;2023-06-26T09:08:45;5;5;
38451;PMS5003;24231;52.514;13.438;2023-06-26T09:11:13;4;4;
38451;PMS5003;24231;52.514;13.438;2023-06-26T09:13:41;5;5;
38451;PMS5003;24231;52.514;13.438;2023-06-26T09:16:09;3;3;
38451;PMS5003;24231;52.514;13.438;2023-06-26T09:18:37;5;5;
38451;PMS5003;24231;52.514;13.438;2023-06-26T09:21:06;4;4;
38451;PMS5003;24231;52.514;13.438;2023-06-26T09:23:34;3;2;
38451;PMS5003;24231;52.514;13.438;2023-06-26T09:26:02;4;3;
38451;PMS5003;24231;52.514;13.438;2023-06-26T09:28:30;7;3;
38451;PMS5003;24231;52.514;13.438;2023-06-26T09:31:00;5;4;
38451;PMS5003;24231;52.514;13.438;2023-06-26T09:33:28;6;6;
38451;PMS5003;24231;52.514;13.438;2023-06-26T09:36:00;5;3;
38451;PMS5003;24231;52.514;13.438;2023-06-26T09:38:28;5;5;
38451;PMS5003;24231;52.514;13.438;2023-06-26T09:40:56;5;4;
38451;PMS5003;24231;52.514;13.438;2023-06-26T09:43:23;5;3;
38451;PMS5003;24231;52.514;13.438;2023-06-26T09:45:50;5;4;
38451;PMS5003;24231;52.514;13.438;2023-06-26T09:48:18;5;5;
38451;PMS5003;24231;52.514;13.438;2023-06-26T09:50:46;7;4;
38451;PMS5003;24231;52.514;13.438;2023-06-26T09:53:14;6;6;
38451;PMS5003;24231;52.514;13.438;2023-06-26T09:55:41;5;4;
38451;PMS5003;24231;52.514;13.438;2023-06-26T09:58:10;7;7;
38451;PMS5003;24231;52.514;13.438;2023-06-26T10:00:37;4;4;
38451;PMS5003;24231;52.514;13.438;2023-06-26T10:03:05;5;4;
38451;PMS5003;24231;52.514;13.438;2023-06-26T10:05:32;4;4;
38451;PMS5003;24231;52.514;13.438;2023-06-26T10:08:00;5;5;
38451;PMS5003;24231;52.514;13.438;2023-06-26T10:10:28;4;4;
38451;PMS5003;24231;52.514;13.438;2023-06-26T10:12:59;8;5;
38451;PMS5003;24231;52.514;13.438;2023-06-26T10:15:30;5;5;
38451;PMS5003;24231;52.514;13.438;2023-06-26T10:17:57;7;5;
38451;PMS5003;24231;52.514;13.438;2023-06-26T10:20:25;5;5;
38451;PMS5003;24231;52.514;13.438;2023-06-26T10:22:53;2;2;
38451;PMS5003;24231;52.514;13.438;2023-06-26T10:25:26;4;4;
38451;PMS5003;24231;52.514;13.438;2023-06-26T10:27:56;5;5;
38451;PMS5003;24231;52.514;13.438;2023-06-26T10:30:27;4;4;
38451;PMS5003;24231;52.514;13.438;2023-06-26T10:32:58;5;3;
38451;PMS5003;24231;52.514;13.438;2023-06-26T10:35:27;6;5;
38451;PMS5003;24231;52.514;13.438;2023-06-26T10:38:00;3;3;
38451;PMS5003;24231;52.514;13.438;2023-06-26T10:40:28;7;6;
38451;PMS5003;24231;52.514;13.438;2023-06-26T10:43:07;7;7;
38451;PMS5003;24231;52.514;13.438;2023-06-26T10:45:36;5;4;
38451;PMS5003;24231;52.514;13.438;2023-06-26T10:48:03;4;4;
38451;PMS5003;24231;52.514;13.438;2023-06-26T10:50:31;5;3;
38451;PMS5003;24231;52.514;13.438;2023-06-26T10:53:15;4;4;
38451;PMS5003;24231;52.514;13.438;2023-06-26T10:55:49;2;2;
38451;PMS5003;24231;52.514;13.438;2023-06-26T10:58:28;4;4;
38451;PMS5003;24231;52.514;13.438;2023-06-26T11:01:28;3;3;
38451;PMS5003;24231;52.514;13.438;2023-06-26T11:04:04;5;5;
38451;PMS5003;24231;52.514;13.438;2023-06-26T11:06:33;5;5;
38451;PMS5003;24231;52.514;13.438;2023-06-26T11:09:06;6;5;
38451;PMS5003;24231;52.514;13.438;2023-06-26T11:12:08;4;4;
38451;PMS5003;24231;52.514;13.438;2023-06-26T11:14:35;4;3;
38451;PMS5003;24231;52.514;13.438;2023-06-26T11:17:03;6;6;
38451;PMS5003;24231;52.514;13.438;2023-06-26T11:19:31;6;6;
38451;PMS5003;24231;52.514;13.438;2023-06-26T11:21:59;5;5;
38451;PMS5003;24231;52.514;13.438;2023-06-26T11:24:28;4;4;
38451;PMS5003;24231;52.514;13.438;2023-06-26T11:26:59;7;7;
38451;PMS5003;24231;52.514;13.438;2023-06-26T11:29:29;5;5;
38451;PMS5003;24231;52.514;13.438;2023-06-26T11:31:58;6;4;
38451;PMS5003;24231;52.514;13.438;2023-06-26T11:34:29;5;3;
38451;PMS5003;24231;52.514;13.438;2023-06-26T11:36:56;6;6;
38451;PMS5003;24231;52.514;13.438;2023-06-26T11:39:24;5;5;
38451;PMS5003;24231;52.514;13.438;2023-06-26T11:41:51;4;4;
38451;PMS5003;24231;52.514;13.438;2023-06-26T11:44:18;4;4;
38451;PMS5003;24231;52.514;13.438;2023-06-26T11:46:48;8;6;
38451;PMS5003;24231;52.514;13.438;2023-06-26T11:49:18;5;5;
38451;PMS5003;24231;52.514;13.438;2023-06-26T11:51:47;4;4;
38451;PMS5003;24231;52.514;13.438;2023-06-26T11:54:14;7;7;
38451;PMS5003;24231;52.514;13.438;2023-06-26T11:56:41;5;5;
38451;PMS5003;24231;52.514;13.438;2023-06-26T11:59:10;5;4;
38451;PMS5003;24231;52.514;13.438;2023-06-26T12:01:38;8;6;
38451;PMS5003;24231;52.514;13.438;2023-06-26T12:04:07;7;5;
38451;PMS5003;24231;52.514;13.438;2023-06-26T12:06:36;7;7;
38451;PMS5003;24231;52.514;13.438;2023-06-26T12:09:05;8;6;
38451;PMS5003;24231;52.514;13.438;2023-06-26T12:11:35;5;5;
38451;PMS5003;24231;52.514;13.438;2023-06-26T12:14:04;4;4;
38451;PMS5003;24231;52.514;13.438;2023-06-26T12:16:32;5;4;
38451;PMS5003;24231;52.514;13.438;2023-06-26T12:19:01;5;4;
38451;PMS5003;24231;52.514;13.438;2023-06-26T12:21:44;7;6;
38451;PMS5003;24231;52.514;13.438;2023-06-26T12:24:13;7;5;
38451;PMS5003;24231;52.514;13.438;2023-06-26T12:26:42;6;5;
38451;PMS5003;24231;52.514;13.438;2023-06-26T12:29:11;9;7;
38451;PMS5003;24231;52.514;13.438;2023-06-26T12:31:40;7;7;
38451;PMS5003;24231;52.514;13.438;2023-06-26T12:34:09;8;5;
38451;PMS5003;24231;52.514;13.438;2023-06-26T12:36:40;13;11;
38451;PMS5003;24231;52.514;13.438;2023-06-26T12:39:09;5;5;
38451;PMS5003;24231;52.514;13.438;2023-06-26T12:43:38;7;6;
38451;PMS5003;24231;52.514;13.438;2023-06-26T13:01:41;7;7;
38451;PMS5003;24231;52.514;13.438;2023-06-26T13:19:07;10;7;
38451;PMS5003;24231;52.514;13.438;2023-06-26T13:21:34;9;7;
38451;PMS5003;24231;52.514;13.438;2023-06-26T13:24:01;9;7;
38451;PMS5003;24231;52.514;13.438;2023-06-26T13:26:28;10;8;
38451;PMS5003;24231;52.514;13.438;2023-06-26T13:28:56;6;6;
38451;PMS5003;24231;52.514;13.438;2023-06-26T13:31:23;9;9;
38451;PMS5003;24231;52.514;13.438;2023-06-26T13:33:50;8;8;
38451;PMS5003;24231;52.514;13.438;2023-06-26T13:36:18;8;8;
38451;PMS5003;24231;52.514;13.438;2023-06-26T13:38:45;6;6;
38451;PMS5003;24231;52.514;13.438;2023-06-26T13:41:12;8;7;
38451;PMS5003;24231;52.514;13.438;2023-06-26T13:43:40;10;8;
38451;PMS5003;24231;52.514;13.438;2023-06-26T13:46:07;9;9;
38451;PMS5003;24231;52.514;13.438;2023-06-26T13:48:35;10;9;
38451;PMS5003;24231;52.514;13.438;2023-06-26T13:51:02;8;8;
38451;PMS5003;24231;52.514;13.438;2023-06-26T13:53:30;9;8;
38451;PMS5003;24231;52.514;13.438;2023-06-26T13:55:59;34;30;
38451;PMS5003;24231;52.514;13.438;2023-06-26T13:58:26;46;37;
38451;PMS5003;24231;52.514;13.438;2023-06-26T14:00:54;8;8;
38451;PMS5003;24231;52.514;13.438;2023-06-26T14:03:21;6;6;
38451;PMS5003;24231;52.514;13.438;2023-06-26T14:05:48;7;6;
38451;PMS5003;24231;52.514;13.438;2023-06-26T14:08:16;8;8;
38451;PMS5003;24231;52.514;13.438;2023-06-26T14:10:43;10;8;
38451;PMS5003;24231;52.514;13.438;2023-06-26T14:13:10;7;6;
38451;PMS5003;24231;52.514;13.438;2023-06-26T14:15:38;10;10;
38451;PMS5003;24231;52.514;13.438;2023-06-26T14:18:05;8;8;
38451;PMS5003;24231;52.514;13.438;2023-06-26T14:20:33;8;8;
38451;PMS5003;24231;52.514;13.438;2023-06-26T14:23:00;11;9;
38451;PMS5003;24231;52.514;13.438;2023-06-26T14:25:27;6;6;
38451;PMS5003;24231;52.514;13.438;2023-06-26T14:27:54;11;7;
38451;PMS5003;24231;52.514;13.438;2023-06-26T14:30:22;9;5;
38451;PMS5003;24231;52.514;13.438;2023-06-26T14:32:50;3;3;
38451;PMS5003;24231;52.514;13.438;2023-06-26T14:35:17;7;5;
38451;PMS5003;24231;52.514;13.438;2023-06-26T14:37:44;3;3;
38451;PMS5003;24231;52.514;13.438;2023-06-26T14:40:11;25;20;
38451;PMS5003;24231;52.514;13.438;2023-06-26T14:42:39;8;7;
38451;PMS5003;24231;52.514;13.438;2023-06-26T14:45:06;7;5;
38451;PMS5003;24231;52.514;13.438;2023-06-26T14:47:34;4;4;
38451;PMS5003;24231;52.514;13.438;2023-06-26T14:50:01;4;3;
38451;PMS5003;24231;52.514;13.438;2023-06-26T14:52:28;8;7;
38451;PMS5003;24231;52.514;13.438;2023-06-26T14:54:55;6;6;
38451;PMS5003;24231;52.514;13.438;2023-06-26T14:57:21;7;6;
38451;PMS5003;24231;52.514;13.438;2023-06-26T14:59:49;6;5;
38451;PMS5003;24231;52.514;13.438;2023-06-26T15:02:16;4;4;
38451;PMS5003;24231;52.514;13.438;2023-06-26T15:04:43;10;10;
38451;PMS5003;24231;52.514;13.438;2023-06-26T15:07:10;11;11;
38451;PMS5003;24231;52.514;13.438;2023-06-26T15:09:38;9;8;
38451;PMS5003;24231;52.514;13.438;2023-06-26T15:12:05;11;11;
38451;PMS5003;24231;52.514;13.438;2023-06-26T15:14:32;14;13;
38451;PMS5003;24231;52.514;13.438;2023-06-26T15:17:00;15;12;
38451;PMS5003;24231;52.514;13.438;2023-06-26T15:19:27;11;11;
38451;PMS5003;24231;52.514;13.438;2023-06-26T15:21:54;14;12;
38451;PMS5003;24231;52.514;13.438;2023-06-26T15:24:22;4;4;
38451;PMS5003;24231;52.514;13.438;2023-06-26T15:26:49;9;6;
38451;PMS5003;24231;52.514;13.438;2023-06-26T15:29:17;5;5;
38451;PMS5003;24231;52.514;13.438;2023-06-26T15:31:44;8;6;
38451;PMS5003;24231;52.514;13.438;2023-06-26T15:34:10;4;4;
38451;PMS5003;24231;52.514;13.438;2023-06-26T15:36:37;8;6;
38451;PMS5003;24231;52.514;13.438;2023-06-26T15:39:05;4;4;
38451;PMS5003;24231;52.514;13.438;2023-06-26T15:41:32;7;7;
38451;PMS5003;24231;52.514;13.438;2023-06-26T15:43:59;10;9;
38451;PMS5003;24231;52.514;13.438;2023-06-26T15:46:26;9;6;
38451;PMS5003;24231;52.514;13.438;2023-06-26T15:48:53;5;5;
38451;PMS5003;24231;52.514;13.438;2023-06-26T15:51:20;8;6;
38451;PMS5003;24231;52.514;13.438;2023-06-26T15:53:48;11;10;
38451;PMS5003;24231;52.514;13.438;2023-06-26T15:56:15;10;8;
38451;PMS5003;24231;52.514;13.438;2023-06-26T15:58:43;11;9;
38451;PMS5003;24231;52.514;13.438;2023-06-26T16:01:10;10;10;
38451;PMS5003;24231;52.514;13.438;2023-06-26T16:03:37;6;6;
38451;PMS5003;24231;52.514;13.438;2023-06-26T16:06:05;8;7;
38451;PMS5003;24231;52.514;13.438;2023-06-26T16:08:33;10;9;
38451;PMS5003;24231;52.514;13.438;2023-06-26T16:11:00;12;11;
38451;PMS5003;24231;52.514;13.438;2023-06-26T16:13:28;8;7;
38451;PMS5003;24231;52.514;13.438;2023-06-26T16:15:55;7;7;
38451;PMS5003;24231;52.514;13.438;2023-06-26T16:18:22;7;7;
38451;PMS5003;24231;52.514;13.438;2023-06-26T16:20:50;8;8;
38451;PMS5003;24231;52.514;13.438;2023-06-26T16:23:17;10;9;
38451;PMS5003;24231;52.514;13.438;2023-06-26T16:26:12;8;8;
38451;PMS5003;24231;52.514;13.438;2023-06-26T16:28:39;13;10;
38451;PMS5003;24231;52.514;13.438;2023-06-26T16:31:06;13;10;
38451;PMS5003;24231;52.514;13.438;2023-06-26T16:33:33;12;11;
38451;PMS5003;24231;52.514;13.438;2023-06-26T16:35:59;9;9;
38451;PMS5003;24231;52.514;13.438;2023-06-26T16:38:26;15;14;
38451;PMS5003;24231;52.514;13.438;2023-06-26T16:40:54;12;9;
38451;PMS5003;24231;52.514;13.438;2023-06-26T16:43:21;9;8;
38451;PMS5003;24231;52.514;13.438;2023-06-26T16:45:48;12;12;
38451;PMS5003;24231;52.514;13.438;2023-06-26T16:48:16;11;11;
38451;PMS5003;24231;52.514;13.438;2023-06-26T16:50:43;16;15;
38451;PMS5003;24231;52.514;13.438;2023-06-26T16:53:10;10;10;
38451;PMS5003;24231;52.514;13.438;2023-06-26T16:55:37;11;10;
38451;PMS5003;24231;52.514;13.438;2023-06-26T16:58:35;10;10;
38451;PMS5003;24231;52.514;13.438;2023-06-26T17:01:02;13;12;
38451;PMS5003;24231;52.514;13.438;2023-06-26T17:03:29;12;9;
38451;PMS5003;24231;52.514;13.438;2023-06-26T17:05:56;7;6;
38451;PMS5003;24231;52.514;13.438;2023-06-26T17:08:23;8;8;
38451;PMS5003;24231;52.514;13.438;2023-06-26T17:13:06;9;8;
38451;PMS5003;24231;52.514;13.438;2023-06-26T17:15:33;8;8;
38451;PMS5003;24231;52.514;13.438;2023-06-26T17:18:01;10;7;
38451;PMS5003;24231;52.514;13.438;2023-06-26T17:20:28;9;7;
38451;PMS5003;24231;52.514;13.438;2023-06-26T17:22:55;7;7;
38451;PMS5003;24231;52.514;13.438;2023-06-26T17:25:22;11;9;
38451;PMS5003;24231;52.514;13.438;2023-06-26T17:27:49;13;9;
38451;PMS5003;24231;52.514;13.438;2023-06-26T17:30:17;10;10;
38451;PMS5003;24231;52.514;13.438;2023-06-26T17:32:44;11;10;
38451;PMS5003;24231;52.514;13.438;2023-06-26T17:35:10;7;7;
38451;PMS5003;24231;52.514;13.438;2023-06-26T17:37:37;11;11;
38451;PMS5003;24231;52.514;13.438;2023-06-26T17:40:05;10;9;
38451;PMS5003;24231;52.514;13.438;2023-06-26T17:42:33;10;10;
38451;PMS5003;24231;52.514;13.438;2023-06-26T17:45:01;8;6;
38451;PMS5003;24231;52.514;13.438;2023-06-26T17:47:28;6;6;
38451;PMS5003;24231;52.514;13.438;2023-06-26T17:49:55;9;9;
38451;PMS5003;24231;52.514;13.438;2023-06-26T17:52:22;11;9;
38451;PMS5003;24231;52.514;13.438;2023-06-26T17:54:49;7;7;
38451;PMS5003;24231;52.514;13.438;2023-06-26T17:57:16;9;8;
38451;PMS5003;24231;52.514;13.438;2023-06-26T17:59:42;10;9;
38451;PMS5003;24231;52.514;13.438;2023-06-26T18:02:10;10;8;
38451;PMS5003;24231;52.514;13.438;2023-06-26T18:04:37;14;11;
38451;PMS5003;24231;52.514;13.438;2023-06-26T18:07:05;8;8;